sensor_id;sensor_type;location;lat;lon;timestamp;P1;durP1;ratioP1;P2;durP2;ratioP2
6053;SDS011;3055;50.886;14.814;2023-03-03T00:02:04;71.07;;;40.63;;
6053;SDS011;3055;50.886;14.814;2023-03-03T00:04:31;68.57;;;36.57;;
6053;SDS011;3055;50.886;14.814;2023-03-03T00:06:58;62.73;;;38.37;;
6053;SDS011;3055;50.886;14.814;2023-03-03T00:09:27;55.70;;;33.43;;
6053;SDS011;3055;50.886;14.814;2023-03-03T00:11:55;60.17;;;35.20;;
6053;SDS011;3055;50.886;14.814;2023-03-03T00:14:27;70.50;;;39.33;;
6053;SDS011;3055;50.886;14.814;2023-03-03T00:16:56;83.27;;;40.27;;
6053;SDS011;3055;50.886;14.814;2023-03-03T00:19:25;67.93;;;38.97;;
6053;SDS011;3055;50.886;14.814;2023-03-03T00:21:52;66.70;;;36.50;;
6053;SDS011;3055;50.886;14.814;2023-03-03T00:24:23;64.43;;;35.90;;
6053;SDS011;3055;50.886;14.814;2023-03-03T00:26:56;63.00;;;33.23;;
6053;SDS011;3055;50.886;14.814;2023-03-03T00:29:29;62.17;;;34.83;;
6053;SDS011;3055;50.886;14.814;2023-03-03T00:32:09;57.70;;;34.63;;
6053;SDS011;3055;50.886;14.814;2023-03-03T00:34:45;57.13;;;34.43;;
6053;SDS011;3055;50.886;14.814;2023-03-03T00:37:21;68.83;;;38.60;;
6053;SDS011;3055;50.886;14.814;2023-03-03T00:39:57;65.00;;;36.07;;
6053;SDS011;3055;50.886;14.814;2023-03-03T00:42:41;67.07;;;36.10;;
6053;SDS011;3055;50.886;14.814;2023-03-03T00:45:28;72.00;;;41.47;;
6053;SDS011;3055;50.886;14.814;2023-03-03T00:47:57;89.43;;;47.20;;
6053;SDS011;3055;50.886;14.814;2023-03-03T00:50:33;86.23;;;45.10;;
6053;SDS011;3055;50.886;14.814;2023-03-03T00:53:01;85.27;;;46.23;;
6053;SDS011;3055;50.886;14.814;2023-03-03T00:55:30;96.23;;;47.43;;
6053;SDS011;3055;50.886;14.814;2023-03-03T00:57:59;100.73;;;48.83;;
6053;SDS011;3055;50.886;14.814;2023-03-03T01:00:26;99.23;;;49.90;;
6053;SDS011;3055;50.886;14.814;2023-03-03T01:02:53;91.83;;;49.47;;
6053;SDS011;3055;50.886;14.814;2023-03-03T01:05:21;102.17;;;50.40;;
6053;SDS011;3055;50.886;14.814;2023-03-03T01:07:48;95.83;;;49.20;;
6053;SDS011;3055;50.886;14.814;2023-03-03T01:10:15;91.53;;;49.20;;
6053;SDS011;3055;50.886;14.814;2023-03-03T01:12:42;97.90;;;50.37;;
6053;SDS011;3055;50.886;14.814;2023-03-03T01:15:12;101.50;;;51.67;;
6053;SDS011;3055;50.886;14.814;2023-03-03T01:17:40;116.23;;;52.10;;
6053;SDS011;3055;50.886;14.814;2023-03-03T01:20:09;105.83;;;49.93;;
6053;SDS011;3055;50.886;14.814;2023-03-03T01:22:38;107.53;;;48.97;;
6053;SDS011;3055;50.886;14.814;2023-03-03T01:25:05;97.93;;;50.63;;
6053;SDS011;3055;50.886;14.814;2023-03-03T01:27:33;97.13;;;49.00;;
6053;SDS011;3055;50.886;14.814;2023-03-03T01:30:01;104.70;;;49.87;;
6053;SDS011;3055;50.886;14.814;2023-03-03T01:32:30;100.63;;;49.47;;
6053;SDS011;3055;50.886;14.814;2023-03-03T01:34:57;97.80;;;50.17;;
6053;SDS011;3055;50.886;14.814;2023-03-03T01:37:24;96.63;;;50.07;;
6053;SDS011;3055;50.886;14.814;2023-03-03T01:39:52;92.00;;;47.83;;
6053;SDS011;3055;50.886;14.814;2023-03-03T01:42:20;93.40;;;49.90;;
6053;SDS011;3055;50.886;14.814;2023-03-03T01:44:47;95.27;;;46.53;;
6053;SDS011;3055;50.886;14.814;2023-03-03T01:47:14;105.83;;;48.23;;
6053;SDS011;3055;50.886;14.814;2023-03-03T01:49:48;87.17;;;48.03;;
6053;SDS011;3055;50.886;14.814;2023-03-03T01:52:23;86.10;;;44.40;;
6053;SDS011;3055;50.886;14.814;2023-03-03T01:54:52;92.80;;;46.80;;
6053;SDS011;3055;50.886;14.814;2023-03-03T01:57:22;90.70;;;45.17;;
6053;SDS011;3055;50.886;14.814;2023-03-03T01:59:53;94.63;;;47.77;;
6053;SDS011;3055;50.886;14.814;2023-03-03T02:02:22;87.07;;;45.37;;
6053;SDS011;3055;50.886;14.814;2023-03-03T02:04:52;92.53;;;45.53;;
6053;SDS011;3055;50.886;14.814;2023-03-03T02:07:19;98.03;;;45.87;;
6053;SDS011;3055;50.886;14.814;2023-03-03T02:09:50;85.13;;;46.37;;
6053;SDS011;3055;50.886;14.814;2023-03-03T02:12:22;110.80;;;45.70;;
6053;SDS011;3055;50.886;14.814;2023-03-03T02:14:56;79.33;;;45.03;;
6053;SDS011;3055;50.886;14.814;2023-03-03T02:17:23;93.60;;;47.17;;
6053;SDS011;3055;50.886;14.814;2023-03-03T02:19:53;98.27;;;48.87;;
6053;SDS011;3055;50.886;14.814;2023-03-03T02:22:30;82.43;;;45.43;;
6053;SDS011;3055;50.886;14.814;2023-03-03T02:25:04;92.10;;;46.37;;
6053;SDS011;3055;50.886;14.814;2023-03-03T02:27:38;83.77;;;44.63;;
6053;SDS011;3055;50.886;14.814;2023-03-03T02:30:10;86.53;;;46.33;;
6053;SDS011;3055;50.886;14.814;2023-03-03T02:32:40;80.80;;;45.70;;
6053;SDS011;3055;50.886;14.814;2023-03-03T02:37:58;87.60;;;43.40;;
6053;SDS011;3055;50.886;14.814;2023-03-03T02:40:33;80.57;;;43.80;;
6053;SDS011;3055;50.886;14.814;2023-03-03T02:43:07;81.30;;;43.63;;
6053;SDS011;3055;50.886;14.814;2023-03-03T02:45:40;87.33;;;43.23;;
6053;SDS011;3055;50.886;14.814;2023-03-03T02:48:08;92.90;;;44.13;;
6053;SDS011;3055;50.886;14.814;2023-03-03T02:50:35;90.30;;;43.70;;
6053;SDS011;3055;50.886;14.814;2023-03-03T02:53:02;85.33;;;42.77;;
6053;SDS011;3055;50.886;14.814;2023-03-03T02:55:29;78.17;;;43.13;;
6053;SDS011;3055;50.886;14.814;2023-03-03T02:57:57;83.30;;;44.90;;
6053;SDS011;3055;50.886;14.814;2023-03-03T03:00:25;85.13;;;44.77;;
6053;SDS011;3055;50.886;14.814;2023-03-03T03:02:52;84.77;;;43.77;;
6053;SDS011;3055;50.886;14.814;2023-03-03T03:05:19;80.27;;;45.90;;
6053;SDS011;3055;50.886;14.814;2023-03-03T03:07:46;75.87;;;43.83;;
6053;SDS011;3055;50.886;14.814;2023-03-03T03:10:13;77.03;;;46.20;;
6053;SDS011;3055;50.886;14.814;2023-03-03T03:12:40;84.30;;;43.47;;
6053;SDS011;3055;50.886;14.814;2023-03-03T03:15:07;77.47;;;42.43;;
6053;SDS011;3055;50.886;14.814;2023-03-03T03:17:37;83.37;;;43.90;;
6053;SDS011;3055;50.886;14.814;2023-03-03T03:20:04;83.93;;;45.10;;
6053;SDS011;3055;50.886;14.814;2023-03-03T03:22:32;80.40;;;43.23;;
6053;SDS011;3055;50.886;14.814;2023-03-03T03:24:59;77.93;;;43.90;;
6053;SDS011;3055;50.886;14.814;2023-03-03T03:27:26;77.80;;;43.90;;
6053;SDS011;3055;50.886;14.814;2023-03-03T03:29:53;80.10;;;44.17;;
6053;SDS011;3055;50.886;14.814;2023-03-03T03:32:20;81.33;;;44.53;;
6053;SDS011;3055;50.886;14.814;2023-03-03T03:34:49;75.17;;;42.47;;
6053;SDS011;3055;50.886;14.814;2023-03-03T03:37:16;80.47;;;43.70;;
6053;SDS011;3055;50.886;14.814;2023-03-03T03:39:43;81.67;;;45.03;;
6053;SDS011;3055;50.886;14.814;2023-03-03T03:42:10;88.33;;;47.53;;
6053;SDS011;3055;50.886;14.814;2023-03-03T03:44:37;81.17;;;42.97;;
6053;SDS011;3055;50.886;14.814;2023-03-03T03:47:04;80.80;;;43.83;;
6053;SDS011;3055;50.886;14.814;2023-03-03T03:49:31;82.40;;;44.27;;
6053;SDS011;3055;50.886;14.814;2023-03-03T03:52:00;82.70;;;44.30;;
6053;SDS011;3055;50.886;14.814;2023-03-03T03:54:27;76.67;;;44.23;;
6053;SDS011;3055;50.886;14.814;2023-03-03T03:56:54;79.30;;;44.57;;
6053;SDS011;3055;50.886;14.814;2023-03-03T03:59:21;78.67;;;43.93;;
6053;SDS011;3055;50.886;14.814;2023-03-03T04:01:48;75.70;;;43.27;;
6053;SDS011;3055;50.886;14.814;2023-03-03T04:04:15;78.70;;;42.63;;
6053;SDS011;3055;50.886;14.814;2023-03-03T04:06:43;80.40;;;45.53;;
6053;SDS011;3055;50.886;14.814;2023-03-03T04:09:11;78.30;;;42.97;;
6053;SDS011;3055;50.886;14.814;2023-03-03T04:11:38;74.03;;;43.33;;
6053;SDS011;3055;50.886;14.814;2023-03-03T04:14:05;81.00;;;45.07;;
6053;SDS011;3055;50.886;14.814;2023-03-03T04:16:33;82.60;;;46.10;;
6053;SDS011;3055;50.886;14.814;2023-03-03T04:19:00;87.13;;;44.87;;
6053;SDS011;3055;50.886;14.814;2023-03-03T04:21:27;81.63;;;44.67;;
6053;SDS011;3055;50.886;14.814;2023-03-03T04:23:54;79.43;;;42.87;;
6053;SDS011;3055;50.886;14.814;2023-03-03T04:26:23;70.93;;;40.10;;
6053;SDS011;3055;50.886;14.814;2023-03-03T04:28:50;86.80;;;45.37;;
6053;SDS011;3055;50.886;14.814;2023-03-03T04:31:18;81.13;;;41.30;;
6053;SDS011;3055;50.886;14.814;2023-03-03T04:33:45;84.63;;;43.13;;
6053;SDS011;3055;50.886;14.814;2023-03-03T04:36:12;85.70;;;41.47;;
6053;SDS011;3055;50.886;14.814;2023-03-03T04:38:39;85.10;;;43.03;;
6053;SDS011;3055;50.886;14.814;2023-03-03T04:41:06;78.37;;;42.73;;
6053;SDS011;3055;50.886;14.814;2023-03-03T04:43:35;81.53;;;41.37;;
6053;SDS011;3055;50.886;14.814;2023-03-03T04:46:02;87.90;;;42.60;;
6053;SDS011;3055;50.886;14.814;2023-03-03T04:48:29;72.67;;;41.23;;
6053;SDS011;3055;50.886;14.814;2023-03-03T04:50:56;80.17;;;42.37;;
6053;SDS011;3055;50.886;14.814;2023-03-03T04:53:23;89.07;;;44.07;;
6053;SDS011;3055;50.886;14.814;2023-03-03T04:55:51;72.23;;;39.40;;
6053;SDS011;3055;50.886;14.814;2023-03-03T04:58:19;76.37;;;40.67;;
6053;SDS011;3055;50.886;14.814;2023-03-03T05:00:51;80.23;;;42.33;;
6053;SDS011;3055;50.886;14.814;2023-03-03T05:03:19;79.07;;;39.93;;
6053;SDS011;3055;50.886;14.814;2023-03-03T05:05:47;83.80;;;43.87;;
6053;SDS011;3055;50.886;14.814;2023-03-03T05:08:14;78.93;;;41.73;;
6053;SDS011;3055;50.886;14.814;2023-03-03T05:10:41;80.20;;;42.87;;
6053;SDS011;3055;50.886;14.814;2023-03-03T05:13:09;80.23;;;41.37;;
6053;SDS011;3055;50.886;14.814;2023-03-03T05:15:39;80.03;;;42.43;;
6053;SDS011;3055;50.886;14.814;2023-03-03T05:18:08;78.67;;;41.07;;
6053;SDS011;3055;50.886;14.814;2023-03-03T05:20:38;71.20;;;40.23;;
6053;SDS011;3055;50.886;14.814;2023-03-03T05:23:06;76.83;;;40.63;;
6053;SDS011;3055;50.886;14.814;2023-03-03T05:25:33;72.57;;;40.10;;
6053;SDS011;3055;50.886;14.814;2023-03-03T05:28:00;80.73;;;39.07;;
6053;SDS011;3055;50.886;14.814;2023-03-03T05:30:28;74.23;;;36.87;;
6053;SDS011;3055;50.886;14.814;2023-03-03T05:32:56;77.47;;;37.03;;
6053;SDS011;3055;50.886;14.814;2023-03-03T05:35:25;74.60;;;35.90;;
6053;SDS011;3055;50.886;14.814;2023-03-03T05:37:52;61.03;;;33.23;;
6053;SDS011;3055;50.886;14.814;2023-03-03T05:40:22;62.80;;;33.30;;
6053;SDS011;3055;50.886;14.814;2023-03-03T05:42:49;65.67;;;31.40;;
6053;SDS011;3055;50.886;14.814;2023-03-03T05:45:16;59.47;;;31.70;;
6053;SDS011;3055;50.886;14.814;2023-03-03T05:47:45;57.83;;;31.30;;
6053;SDS011;3055;50.886;14.814;2023-03-03T05:50:12;65.83;;;31.20;;
6053;SDS011;3055;50.886;14.814;2023-03-03T05:52:40;59.80;;;30.20;;
6053;SDS011;3055;50.886;14.814;2023-03-03T05:55:08;59.57;;;30.03;;
6053;SDS011;3055;50.886;14.814;2023-03-03T05:57:36;57.17;;;29.97;;
6053;SDS011;3055;50.886;14.814;2023-03-03T06:00:03;63.27;;;29.50;;
6053;SDS011;3055;50.886;14.814;2023-03-03T06:02:32;60.17;;;29.20;;
6053;SDS011;3055;50.886;14.814;2023-03-03T06:04:59;55.20;;;28.93;;
6053;SDS011;3055;50.886;14.814;2023-03-03T06:07:26;54.47;;;29.53;;
6053;SDS011;3055;50.886;14.814;2023-03-03T06:09:55;59.00;;;29.67;;
6053;SDS011;3055;50.886;14.814;2023-03-03T06:12:22;55.07;;;27.80;;
6053;SDS011;3055;50.886;14.814;2023-03-03T06:14:49;57.07;;;27.00;;
6053;SDS011;3055;50.886;14.814;2023-03-03T06:17:16;51.57;;;27.33;;
6053;SDS011;3055;50.886;14.814;2023-03-03T06:19:43;47.97;;;25.13;;
6053;SDS011;3055;50.886;14.814;2023-03-03T06:22:11;48.80;;;24.57;;
6053;SDS011;3055;50.886;14.814;2023-03-03T06:24:38;47.50;;;23.60;;
6053;SDS011;3055;50.886;14.814;2023-03-03T06:27:08;44.23;;;23.20;;
6053;SDS011;3055;50.886;14.814;2023-03-03T06:29:35;44.33;;;22.70;;
6053;SDS011;3055;50.886;14.814;2023-03-03T06:32:02;44.83;;;23.07;;
6053;SDS011;3055;50.886;14.814;2023-03-03T06:34:30;40.47;;;22.37;;
6053;SDS011;3055;50.886;14.814;2023-03-03T06:36:57;49.30;;;24.30;;
6053;SDS011;3055;50.886;14.814;2023-03-03T06:39:24;42.83;;;23.73;;
6053;SDS011;3055;50.886;14.814;2023-03-03T06:41:51;42.60;;;21.00;;
6053;SDS011;3055;50.886;14.814;2023-03-03T06:44:19;43.77;;;21.10;;
6053;SDS011;3055;50.886;14.814;2023-03-03T06:46:46;41.87;;;23.33;;
6053;SDS011;3055;50.886;14.814;2023-03-03T06:49:14;40.43;;;22.00;;
6053;SDS011;3055;50.886;14.814;2023-03-03T06:51:42;35.40;;;20.43;;
6053;SDS011;3055;50.886;14.814;2023-03-03T06:54:11;34.80;;;19.67;;
6053;SDS011;3055;50.886;14.814;2023-03-03T06:56:39;35.97;;;20.07;;
6053;SDS011;3055;50.886;14.814;2023-03-03T06:59:09;35.80;;;18.40;;
6053;SDS011;3055;50.886;14.814;2023-03-03T07:01:40;33.33;;;18.63;;
6053;SDS011;3055;50.886;14.814;2023-03-03T07:04:15;37.97;;;19.67;;
6053;SDS011;3055;50.886;14.814;2023-03-03T07:06:49;32.33;;;18.47;;
6053;SDS011;3055;50.886;14.814;2023-03-03T07:09:18;33.93;;;19.23;;
6053;SDS011;3055;50.886;14.814;2023-03-03T07:11:48;35.60;;;19.63;;
6053;SDS011;3055;50.886;14.814;2023-03-03T07:14:17;36.33;;;20.40;;
6053;SDS011;3055;50.886;14.814;2023-03-03T07:16:46;36.77;;;20.23;;
6053;SDS011;3055;50.886;14.814;2023-03-03T07:19:22;41.03;;;19.93;;
6053;SDS011;3055;50.886;14.814;2023-03-03T07:21:56;33.83;;;18.73;;
6053;SDS011;3055;50.886;14.814;2023-03-03T07:24:27;36.00;;;20.30;;
6053;SDS011;3055;50.886;14.814;2023-03-03T07:26:56;33.90;;;20.10;;
6053;SDS011;3055;50.886;14.814;2023-03-03T07:29:27;36.30;;;19.83;;
6053;SDS011;3055;50.886;14.814;2023-03-03T07:31:57;32.47;;;17.20;;
6053;SDS011;3055;50.886;14.814;2023-03-03T07:34:26;31.77;;;17.67;;
6053;SDS011;3055;50.886;14.814;2023-03-03T07:37:03;29.93;;;16.97;;
6053;SDS011;3055;50.886;14.814;2023-03-03T07:39:36;30.87;;;17.40;;
6053;SDS011;3055;50.886;14.814;2023-03-03T07:44:54;27.53;;;16.37;;
6053;SDS011;3055;50.886;14.814;2023-03-03T07:47:25;33.70;;;17.07;;
6053;SDS011;3055;50.886;14.814;2023-03-03T07:49:53;28.67;;;16.77;;
6053;SDS011;3055;50.886;14.814;2023-03-03T07:52:26;33.77;;;18.07;;
6053;SDS011;3055;50.886;14.814;2023-03-03T07:54:57;37.03;;;18.33;;
6053;SDS011;3055;50.886;14.814;2023-03-03T07:57:26;36.83;;;18.23;;
6053;SDS011;3055;50.886;14.814;2023-03-03T08:00:01;31.93;;;16.93;;
6053;SDS011;3055;50.886;14.814;2023-03-03T08:02:52;29.87;;;16.30;;
6053;SDS011;3055;50.886;14.814;2023-03-03T08:05:25;27.13;;;16.07;;
6053;SDS011;3055;50.886;14.814;2023-03-03T08:08:01;30.97;;;16.03;;
6053;SDS011;3055;50.886;14.814;2023-03-03T08:10:42;26.63;;;15.23;;
6053;SDS011;3055;50.886;14.814;2023-03-03T08:13:15;31.70;;;15.90;;
6053;SDS011;3055;50.886;14.814;2023-03-03T08:15:44;26.47;;;14.37;;
6053;SDS011;3055;50.886;14.814;2023-03-03T08:18:17;29.00;;;14.67;;
6053;SDS011;3055;50.886;14.814;2023-03-03T08:20:49;29.33;;;15.20;;
6053;SDS011;3055;50.886;14.814;2023-03-03T08:23:20;28.27;;;15.03;;
6053;SDS011;3055;50.886;14.814;2023-03-03T08:25:48;27.03;;;14.83;;
6053;SDS011;3055;50.886;14.814;2023-03-03T08:28:16;24.57;;;11.93;;
6053;SDS011;3055;50.886;14.814;2023-03-03T08:30:44;23.83;;;13.20;;
6053;SDS011;3055;50.886;14.814;2023-03-03T08:33:12;20.50;;;12.17;;
6053;SDS011;3055;50.886;14.814;2023-03-03T08:35:42;20.37;;;12.03;;
6053;SDS011;3055;50.886;14.814;2023-03-03T08:38:09;18.37;;;11.67;;
6053;SDS011;3055;50.886;14.814;2023-03-03T08:40:38;17.23;;;11.40;;
6053;SDS011;3055;50.886;14.814;2023-03-03T08:43:06;18.83;;;10.83;;
6053;SDS011;3055;50.886;14.814;2023-03-03T08:45:34;20.80;;;12.63;;
6053;SDS011;3055;50.886;14.814;2023-03-03T08:48:02;22.97;;;12.60;;
6053;SDS011;3055;50.886;14.814;2023-03-03T08:50:30;25.00;;;13.23;;
6053;SDS011;3055;50.886;14.814;2023-03-03T08:52:58;21.17;;;12.47;;
6053;SDS011;3055;50.886;14.814;2023-03-03T08:55:25;20.20;;;11.53;;
6053;SDS011;3055;50.886;14.814;2023-03-03T08:57:52;21.20;;;11.63;;
6053;SDS011;3055;50.886;14.814;2023-03-03T09:00:22;18.80;;;11.57;;
6053;SDS011;3055;50.886;14.814;2023-03-03T09:02:54;22.83;;;12.50;;
6053;SDS011;3055;50.886;14.814;2023-03-03T09:05:36;23.10;;;12.90;;
6053;SDS011;3055;50.886;14.814;2023-03-03T09:08:06;24.13;;;13.70;;
6053;SDS011;3055;50.886;14.814;2023-03-03T09:10:36;21.87;;;13.10;;
6053;SDS011;3055;50.886;14.814;2023-03-03T09:13:06;22.40;;;13.77;;
6053;SDS011;3055;50.886;14.814;2023-03-03T09:15:39;21.63;;;13.17;;
6053;SDS011;3055;50.886;14.814;2023-03-03T09:18:10;22.30;;;13.30;;
6053;SDS011;3055;50.886;14.814;2023-03-03T09:20:40;23.53;;;12.90;;
6053;SDS011;3055;50.886;14.814;2023-03-03T09:26:16;19.43;;;12.13;;
6053;SDS011;3055;50.886;14.814;2023-03-03T09:28:52;20.23;;;12.40;;
6053;SDS011;3055;50.886;14.814;2023-03-03T09:31:24;22.57;;;12.53;;
6053;SDS011;3055;50.886;14.814;2023-03-03T09:33:52;21.47;;;13.37;;
6053;SDS011;3055;50.886;14.814;2023-03-03T09:36:24;21.70;;;12.73;;
6053;SDS011;3055;50.886;14.814;2023-03-03T09:38:54;18.83;;;11.13;;
6053;SDS011;3055;50.886;14.814;2023-03-03T09:41:38;18.33;;;11.13;;
6053;SDS011;3055;50.886;14.814;2023-03-03T09:44:44;21.30;;;11.53;;
6053;SDS011;3055;50.886;14.814;2023-03-03T09:47:26;19.83;;;11.70;;
6053;SDS011;3055;50.886;14.814;2023-03-03T09:50:06;19.20;;;11.17;;
6053;SDS011;3055;50.886;14.814;2023-03-03T09:52:44;19.77;;;11.43;;
6053;SDS011;3055;50.886;14.814;2023-03-03T09:55:25;16.07;;;11.03;;
6053;SDS011;3055;50.886;14.814;2023-03-03T09:58:06;19.87;;;11.27;;
6053;SDS011;3055;50.886;14.814;2023-03-03T10:01:24;19.53;;;11.83;;
6053;SDS011;3055;50.886;14.814;2023-03-03T10:04:04;33.43;;;17.87;;
6053;SDS011;3055;50.886;14.814;2023-03-03T10:06:42;21.33;;;12.73;;
6053;SDS011;3055;50.886;14.814;2023-03-03T10:09:31;23.80;;;13.97;;
6053;SDS011;3055;50.886;14.814;2023-03-03T10:12:25;23.30;;;13.40;;
6053;SDS011;3055;50.886;14.814;2023-03-03T10:17:57;20.33;;;12.93;;
6053;SDS011;3055;50.886;14.814;2023-03-03T10:20:43;19.33;;;12.43;;
6053;SDS011;3055;50.886;14.814;2023-03-03T10:23:23;15.97;;;11.10;;
6053;SDS011;3055;50.886;14.814;2023-03-03T10:26:07;19.97;;;11.80;;
6053;SDS011;3055;50.886;14.814;2023-03-03T10:28:52;19.77;;;12.20;;
6053;SDS011;3055;50.886;14.814;2023-03-03T10:31:34;18.80;;;12.53;;
6053;SDS011;3055;50.886;14.814;2023-03-03T10:34:17;19.23;;;12.00;;
6053;SDS011;3055;50.886;14.814;2023-03-03T10:36:54;16.70;;;12.20;;
6053;SDS011;3055;50.886;14.814;2023-03-03T10:39:35;19.47;;;13.07;;
6053;SDS011;3055;50.886;14.814;2023-03-03T10:42:16;17.77;;;12.07;;
6053;SDS011;3055;50.886;14.814;2023-03-03T10:45:12;20.77;;;12.27;;
6053;SDS011;3055;50.886;14.814;2023-03-03T10:51:14;16.37;;;11.80;;
6053;SDS011;3055;50.886;14.814;2023-03-03T10:53:50;15.53;;;10.47;;
6053;SDS011;3055;50.886;14.814;2023-03-03T10:56:28;20.37;;;12.30;;
6053;SDS011;3055;50.886;14.814;2023-03-03T10:59:03;18.20;;;11.20;;
6053;SDS011;3055;50.886;14.814;2023-03-03T11:01:46;18.63;;;12.27;;
6053;SDS011;3055;50.886;14.814;2023-03-03T11:07:18;15.27;;;11.27;;
6053;SDS011;3055;50.886;14.814;2023-03-03T11:09:55;17.03;;;10.83;;
6053;SDS011;3055;50.886;14.814;2023-03-03T11:12:38;16.27;;;11.33;;
6053;SDS011;3055;50.886;14.814;2023-03-03T11:18:23;14.07;;;10.03;;
6053;SDS011;3055;50.886;14.814;2023-03-03T11:21:00;14.87;;;10.53;;
6053;SDS011;3055;50.886;14.814;2023-03-03T11:23:48;15.80;;;10.50;;
6053;SDS011;3055;50.886;14.814;2023-03-03T11:26:24;17.37;;;10.80;;
6053;SDS011;3055;50.886;14.814;2023-03-03T11:29:16;16.53;;;11.23;;
6053;SDS011;3055;50.886;14.814;2023-03-03T11:31:56;15.03;;;9.70;;
6053;SDS011;3055;50.886;14.814;2023-03-03T11:34:41;15.60;;;10.43;;
6053;SDS011;3055;50.886;14.814;2023-03-03T11:37:17;17.47;;;10.50;;
6053;SDS011;3055;50.886;14.814;2023-03-03T11:39:49;13.63;;;10.03;;
6053;SDS011;3055;50.886;14.814;2023-03-03T11:42:22;14.50;;;10.27;;
6053;SDS011;3055;50.886;14.814;2023-03-03T11:44:58;14.57;;;9.87;;
6053;SDS011;3055;50.886;14.814;2023-03-03T11:47:37;16.43;;;10.53;;
6053;SDS011;3055;50.886;14.814;2023-03-03T11:50:14;19.37;;;10.23;;
6053;SDS011;3055;50.886;14.814;2023-03-03T11:52:46;14.43;;;9.63;;
6053;SDS011;3055;50.886;14.814;2023-03-03T11:55:22;18.47;;;10.60;;
6053;SDS011;3055;50.886;14.814;2023-03-03T11:57:55;16.13;;;10.13;;
6053;SDS011;3055;50.886;14.814;2023-03-03T12:00:32;14.50;;;9.93;;
6053;SDS011;3055;50.886;14.814;2023-03-03T12:06:00;14.33;;;10.17;;
6053;SDS011;3055;50.886;14.814;2023-03-03T12:08:41;14.30;;;9.67;;
6053;SDS011;3055;50.886;14.814;2023-03-03T12:11:27;11.73;;;9.07;;
6053;SDS011;3055;50.886;14.814;2023-03-03T12:14:01;15.33;;;9.97;;
6053;SDS011;3055;50.886;14.814;2023-03-03T12:16:38;16.10;;;10.10;;
6053;SDS011;3055;50.886;14.814;2023-03-03T12:19:19;12.73;;;9.50;;
6053;SDS011;3055;50.886;14.814;2023-03-03T12:22:04;14.27;;;9.17;;
6053;SDS011;3055;50.886;14.814;2023-03-03T12:24:41;17.13;;;10.20;;
6053;SDS011;3055;50.886;14.814;2023-03-03T12:27:21;16.03;;;10.10;;
6053;SDS011;3055;50.886;14.814;2023-03-03T12:29:56;15.93;;;8.93;;
6053;SDS011;3055;50.886;14.814;2023-03-03T12:32:33;16.53;;;10.60;;
6053;SDS011;3055;50.886;14.814;2023-03-03T12:35:14;15.97;;;9.97;;
6053;SDS011;3055;50.886;14.814;2023-03-03T12:37:53;16.47;;;10.60;;
6053;SDS011;3055;50.886;14.814;2023-03-03T12:40:28;19.57;;;11.20;;
6053;SDS011;3055;50.886;14.814;2023-03-03T12:43:11;18.30;;;11.47;;
6053;SDS011;3055;50.886;14.814;2023-03-03T12:45:50;15.70;;;11.30;;
6053;SDS011;3055;50.886;14.814;2023-03-03T12:48:28;17.83;;;11.23;;
6053;SDS011;3055;50.886;14.814;2023-03-03T12:51:07;18.10;;;11.30;;
6053;SDS011;3055;50.886;14.814;2023-03-03T12:53:47;19.00;;;11.00;;
6053;SDS011;3055;50.886;14.814;2023-03-03T12:56:23;16.70;;;10.53;;
6053;SDS011;3055;50.886;14.814;2023-03-03T12:58:59;15.60;;;10.97;;
6053;SDS011;3055;50.886;14.814;2023-03-03T13:01:35;19.93;;;11.00;;
6053;SDS011;3055;50.886;14.814;2023-03-03T13:04:27;17.70;;;10.97;;
6053;SDS011;3055;50.886;14.814;2023-03-03T13:07:03;14.57;;;10.50;;
6053;SDS011;3055;50.886;14.814;2023-03-03T13:09:38;17.47;;;10.37;;
6053;SDS011;3055;50.886;14.814;2023-03-03T13:12:25;15.13;;;10.07;;
6053;SDS011;3055;50.886;14.814;2023-03-03T13:15:00;15.67;;;9.90;;
6053;SDS011;3055;50.886;14.814;2023-03-03T13:17:36;15.13;;;9.67;;
6053;SDS011;3055;50.886;14.814;2023-03-03T13:20:14;15.87;;;10.20;;
6053;SDS011;3055;50.886;14.814;2023-03-03T13:22:49;15.97;;;10.10;;
6053;SDS011;3055;50.886;14.814;2023-03-03T13:25:30;16.50;;;10.40;;
6053;SDS011;3055;50.886;14.814;2023-03-03T13:28:11;16.07;;;9.80;;
6053;SDS011;3055;50.886;14.814;2023-03-03T13:30:46;16.17;;;10.80;;
6053;SDS011;3055;50.886;14.814;2023-03-03T13:33:16;15.03;;;9.90;;
6053;SDS011;3055;50.886;14.814;2023-03-03T13:35:52;15.87;;;9.63;;
6053;SDS011;3055;50.886;14.814;2023-03-03T13:38:22;17.07;;;10.27;;
6053;SDS011;3055;50.886;14.814;2023-03-03T13:40:56;19.30;;;11.43;;
6053;SDS011;3055;50.886;14.814;2023-03-03T13:43:32;15.60;;;10.30;;
6053;SDS011;3055;50.886;14.814;2023-03-03T13:46:07;15.03;;;9.23;;
6053;SDS011;3055;50.886;14.814;2023-03-03T13:48:43;17.20;;;10.97;;
6053;SDS011;3055;50.886;14.814;2023-03-03T13:51:34;16.90;;;10.10;;
6053;SDS011;3055;50.886;14.814;2023-03-03T13:54:09;16.47;;;9.40;;
6053;SDS011;3055;50.886;14.814;2023-03-03T13:56:48;12.30;;;8.60;;
6053;SDS011;3055;50.886;14.814;2023-03-03T13:59:41;13.47;;;9.83;;
6053;SDS011;3055;50.886;14.814;2023-03-03T14:02:24;10.43;;;8.73;;
6053;SDS011;3055;50.886;14.814;2023-03-03T14:05:09;9.73;;;7.90;;
6053;SDS011;3055;50.886;14.814;2023-03-03T14:07:42;11.43;;;9.03;;
6053;SDS011;3055;50.886;14.814;2023-03-03T14:10:16;11.97;;;8.57;;
6053;SDS011;3055;50.886;14.814;2023-03-03T14:12:49;14.23;;;8.57;;
6053;SDS011;3055;50.886;14.814;2023-03-03T14:15:24;8.77;;;7.03;;
6053;SDS011;3055;50.886;14.814;2023-03-03T14:17:59;9.87;;;7.90;;
6053;SDS011;3055;50.886;14.814;2023-03-03T14:20:37;10.07;;;7.47;;
6053;SDS011;3055;50.886;14.814;2023-03-03T14:23:09;11.50;;;7.93;;
6053;SDS011;3055;50.886;14.814;2023-03-03T14:25:50;9.67;;;7.70;;
6053;SDS011;3055;50.886;14.814;2023-03-03T14:28:26;8.37;;;7.30;;
6053;SDS011;3055;50.886;14.814;2023-03-03T14:31:08;10.40;;;7.37;;
6053;SDS011;3055;50.886;14.814;2023-03-03T14:33:42;9.53;;;6.83;;
6053;SDS011;3055;50.886;14.814;2023-03-03T14:36:12;10.37;;;7.33;;
6053;SDS011;3055;50.886;14.814;2023-03-03T14:38:46;9.93;;;7.83;;
6053;SDS011;3055;50.886;14.814;2023-03-03T14:41:19;8.30;;;7.00;;
6053;SDS011;3055;50.886;14.814;2023-03-03T14:43:57;8.80;;;6.87;;
6053;SDS011;3055;50.886;14.814;2023-03-03T14:46:35;11.20;;;8.90;;
6053;SDS011;3055;50.886;14.814;2023-03-03T14:49:05;11.00;;;7.37;;
6053;SDS011;3055;50.886;14.814;2023-03-03T14:51:39;9.37;;;7.17;;
6053;SDS011;3055;50.886;14.814;2023-03-03T14:54:13;8.30;;;6.87;;
6053;SDS011;3055;50.886;14.814;2023-03-03T14:56:59;10.00;;;7.80;;
6053;SDS011;3055;50.886;14.814;2023-03-03T14:59:33;10.47;;;7.07;;
6053;SDS011;3055;50.886;14.814;2023-03-03T15:05:21;10.87;;;7.10;;
6053;SDS011;3055;50.886;14.814;2023-03-03T15:07:53;27.63;;;16.97;;
6053;SDS011;3055;50.886;14.814;2023-03-03T15:10:30;10.27;;;8.00;;
6053;SDS011;3055;50.886;14.814;2023-03-03T15:13:08;11.40;;;8.33;;
6053;SDS011;3055;50.886;14.814;2023-03-03T15:16:01;13.40;;;9.00;;
6053;SDS011;3055;50.886;14.814;2023-03-03T15:18:34;12.17;;;8.33;;
6053;SDS011;3055;50.886;14.814;2023-03-03T15:21:19;14.13;;;10.43;;
6053;SDS011;3055;50.886;14.814;2023-03-03T15:23:52;9.67;;;7.43;;
6053;SDS011;3055;50.886;14.814;2023-03-03T15:26:25;8.83;;;7.77;;
6053;SDS011;3055;50.886;14.814;2023-03-03T15:28:58;32.10;;;16.87;;
6053;SDS011;3055;50.886;14.814;2023-03-03T15:31:37;15.93;;;10.70;;
6053;SDS011;3055;50.886;14.814;2023-03-03T15:34:19;14.10;;;9.50;;
6053;SDS011;3055;50.886;14.814;2023-03-03T15:36:53;15.33;;;10.27;;